createdAt,value
2018-06-12T00:02:40.054Z,19.57
2018-06-12T00:06:43.083Z,16.97
2018-06-12T00:10:45.802Z,16.33
2018-06-12T00:14:51.683Z,17.10
2018-06-12T00:18:54.381Z,18.07
2018-06-12T00:22:57.323Z,18.43
2018-06-12T00:26:59.971Z,16.80
2018-06-12T00:31:03.058Z,19.23
2018-06-12T00:35:05.957Z,15.23
2018-06-12T00:39:09.073Z,16.20
2018-06-12T00:43:11.704Z,18.03
2018-06-12T00:47:14.390Z,18.93
2018-06-12T00:51:17.013Z,20.43
2018-06-12T00:55:23.626Z,17.70
2018-06-12T00:59:26.290Z,21.00
2018-06-12T01:03:28.978Z,19.13
2018-06-12T01:07:31.797Z,19.40
2018-06-12T01:11:36.822Z,20.50
2018-06-12T01:15:39.484Z,21.23
2018-06-12T01:19:42.192Z,26.73
2018-06-12T01:23:44.845Z,24.63
2018-06-12T01:27:47.501Z,27.27
2018-06-12T01:31:52.588Z,26.17
2018-06-12T01:35:55.384Z,24.93
2018-06-12T01:39:58.012Z,24.20
2018-06-12T01:44:01.287Z,22.37
2018-06-12T01:48:04.393Z,20.17
2018-06-12T01:52:07.506Z,21.13
2018-06-12T01:56:10.181Z,21.37
2018-06-12T02:00:12.986Z,20.97
2018-06-12T02:04:15.633Z,23.73
2018-06-12T02:08:19.394Z,22.80
2018-06-12T02:12:22.220Z,24.47
2018-06-12T02:16:25.019Z,25.90
2018-06-12T02:20:35.517Z,20.50
2018-06-12T02:24:38.346Z,22.57
2018-06-12T02:28:41.004Z,16.97
2018-06-12T02:32:43.947Z,18.23
2018-06-12T02:36:46.736Z,19.50
2018-06-12T02:41:02.138Z,16.53
2018-06-12T02:45:05.261Z,15.53
2018-06-12T02:49:08.226Z,20.63
2018-06-12T02:53:10.872Z,18.67
2018-06-12T02:57:13.630Z,19.30
2018-06-12T03:01:16.365Z,17.93
2018-06-12T03:05:19.119Z,17.13
2018-06-12T03:09:21.831Z,16.73
2018-06-12T03:13:24.648Z,17.60
2018-06-12T03:17:27.340Z,18.93
2018-06-12T03:21:30.024Z,18.13
2018-06-12T03:25:33.513Z,17.80
2018-06-12T03:29:36.600Z,18.00
2018-06-12T03:33:39.286Z,18.90
2018-06-12T03:37:42.200Z,17.00
2018-06-12T03:41:44.830Z,18.37
2018-06-12T03:45:47.490Z,18.33
2018-06-12T03:49:50.195Z,16.83
2018-06-12T03:53:53.070Z,17.23
2018-06-12T03:57:55.725Z,14.97
2018-06-12T04:01:58.830Z,15.33
2018-06-12T04:06:02.445Z,17.67
2018-06-12T04:10:05.842Z,17.00
2018-06-12T04:14:08.542Z,14.63
2018-06-12T04:18:11.219Z,16.27
2018-06-12T04:22:13.903Z,15.23
2018-06-12T04:26:16.667Z,14.60
2018-06-12T04:30:22.500Z,14.87
2018-06-12T04:34:31.078Z,13.83
2018-06-12T04:38:34.827Z,14.80
2018-06-12T04:42:37.640Z,20.67
2018-06-12T04:46:40.290Z,14.90
2018-06-12T04:50:43.056Z,15.63
2018-06-12T04:54:45.662Z,14.20
2018-06-12T04:58:48.407Z,13.53
2018-06-12T05:03:02.833Z,15.07
2018-06-12T05:07:06.059Z,12.00
2018-06-12T05:11:08.673Z,11.33
2018-06-12T05:15:11.506Z,12.20
2018-06-12T05:19:22.056Z,11.97
2018-06-12T05:23:24.843Z,13.37
2018-06-12T05:27:27.518Z,16.13
2018-06-12T05:31:30.227Z,10.60
2018-06-12T05:35:36.886Z,10.83
2018-06-12T05:39:39.711Z,10.00
2018-06-12T05:43:42.487Z,11.50
2018-06-12T05:47:45.229Z,12.30
2018-06-12T05:51:47.873Z,10.67
2018-06-12T05:55:51.863Z,8.83
2018-06-12T05:59:54.512Z,9.97
2018-06-12T06:03:58.650Z,8.30
2018-06-12T06:08:01.427Z,11.67
2018-06-12T06:12:04.506Z,10.63
2018-06-12T06:16:07.382Z,8.70
2018-06-12T06:20:10.326Z,8.47
2018-06-12T06:24:12.930Z,8.93
2018-06-12T06:28:15.635Z,8.07
2018-06-12T06:32:18.306Z,10.10
2018-06-12T06:36:21.306Z,11.63
2018-06-12T06:40:24.190Z,7.33
2018-06-12T06:44:28.121Z,7.27
2018-06-12T06:48:30.976Z,7.03
2018-06-12T06:52:34.071Z,7.27
2018-06-12T06:56:36.956Z,7.57
2018-06-12T07:00:39.634Z,9.60
2018-06-12T07:04:42.253Z,7.13
2018-06-12T07:08:44.956Z,10.63
2018-06-12T07:12:47.597Z,6.70
2018-06-12T07:16:50.458Z,8.40
2018-06-12T07:21:05.063Z,7.10
2018-06-12T07:25:08.080Z,8.13
2018-06-12T07:29:10.731Z,9.30
2018-06-12T07:33:26.046Z,8.77
2018-06-12T07:37:29.000Z,10.17
2018-06-12T07:41:33.538Z,8.20
2018-06-12T07:49:47.712Z,8.47
2018-06-12T07:53:53.942Z,6.90
2018-06-12T07:57:56.738Z,7.17
2018-06-12T08:02:01.598Z,6.43
2018-06-12T08:06:04.507Z,7.17
2018-06-12T08:10:07.354Z,7.47
2018-06-12T08:14:10.186Z,9.30
2018-06-12T08:18:12.809Z,8.77
2018-06-12T08:22:15.598Z,12.67
2018-06-12T08:26:18.226Z,7.10
2018-06-12T08:30:21.122Z,9.93
2018-06-12T08:34:29.562Z,7.67
2018-06-12T08:38:32.773Z,8.27
2018-06-12T08:42:35.697Z,9.27
2018-06-12T08:46:38.434Z,7.20
2018-06-12T08:50:41.090Z,7.80
2018-06-12T08:54:43.882Z,10.67
2018-06-12T08:58:47.521Z,9.63
2018-06-12T09:02:50.846Z,7.70
2018-06-12T09:06:53.472Z,8.43
2018-06-12T09:10:56.211Z,7.67
2018-06-12T09:14:58.942Z,7.90
2018-06-12T09:19:01.975Z,8.60
2018-06-12T09:23:07.976Z,7.77
2018-06-12T09:27:11.042Z,8.17
2018-06-12T09:31:13.660Z,9.30
2018-06-12T09:35:16.314Z,9.50
2018-06-12T09:39:22.777Z,8.47
2018-06-12T09:43:25.643Z,10.60
2018-06-12T09:47:28.238Z,7.57
2018-06-12T09:51:31.231Z,8.83
2018-06-12T09:55:34.076Z,8.20
2018-06-12T09:59:37.050Z,8.17
2018-06-12T10:03:50.118Z,7.93
2018-06-12T10:07:53.093Z,10.33
2018-06-12T10:11:55.819Z,7.13
2018-06-12T10:15:58.631Z,8.07
2018-06-12T10:20:01.361Z,6.90
2018-06-12T10:24:04.327Z,6.87
2018-06-12T10:28:08.118Z,8.43
2018-06-12T10:32:10.808Z,7.77
2018-06-12T10:36:17.954Z,5.10
2018-06-12T10:40:22.050Z,5.73
2018-06-12T10:44:24.994Z,4.73
2018-06-12T10:48:33.019Z,8.20
2018-06-12T10:52:35.915Z,5.33
2018-06-12T10:56:38.658Z,5.20
2018-06-12T11:00:41.371Z,8.40
2018-06-12T11:04:44.553Z,6.87
2018-06-12T11:08:53.434Z,4.63
2018-06-12T11:17:14.551Z,4.43
2018-06-12T11:21:23.106Z,4.00
2018-06-12T11:25:26.853Z,5.47
2018-06-12T11:29:30.423Z,5.20
2018-06-12T11:33:34.170Z,3.60
2018-06-12T11:37:39.782Z,4.43
2018-06-12T11:41:43.234Z,4.27
2018-06-12T11:45:48.855Z,4.60
2018-06-12T11:49:52.815Z,6.60
2018-06-12T11:53:58.010Z,4.67
2018-06-12T11:58:01.803Z,4.97
2018-06-12T12:02:05.612Z,6.10
2018-06-12T12:06:09.341Z,5.67
2018-06-12T12:10:14.065Z,5.53
2018-06-12T12:14:17.715Z,4.47
2018-06-12T12:18:21.323Z,4.70
2018-06-12T12:22:25.227Z,8.47
2018-06-12T12:26:28.863Z,6.83
2018-06-12T12:30:33.070Z,6.00
2018-06-12T12:34:36.978Z,8.10
2018-06-12T12:38:40.666Z,4.27
2018-06-12T12:42:44.156Z,6.23
2018-06-12T12:46:50.136Z,4.50
2018-06-12T12:50:53.785Z,7.80
2018-06-12T12:54:57.503Z,7.40
2018-06-12T12:59:05.471Z,5.63
2018-06-12T13:03:09.338Z,5.67
2018-06-12T13:07:12.894Z,5.07
2018-06-12T13:11:16.585Z,5.03
2018-06-12T13:15:20.444Z,4.47
2018-06-12T13:19:25.052Z,5.53
2018-06-12T13:23:34.061Z,5.30
2018-06-12T13:27:40.206Z,6.37
2018-06-12T13:31:43.851Z,6.17
2018-06-12T13:35:47.489Z,5.07
2018-06-12T13:39:51.143Z,5.20
2018-06-12T13:43:55.730Z,5.50
2018-06-12T13:48:02.909Z,5.33
2018-06-12T13:52:06.867Z,4.90
2018-06-12T13:56:10.391Z,5.43
2018-06-12T14:00:18.771Z,5.07
2018-06-12T14:04:24.315Z,5.10
2018-06-12T14:08:27.895Z,6.27
2018-06-12T14:12:33.511Z,4.80
2018-06-12T14:16:37.176Z,5.00
2018-06-12T14:20:40.818Z,4.53
2018-06-12T14:24:44.584Z,5.30
2018-06-12T14:28:52.066Z,4.77
2018-06-12T14:32:55.854Z,4.33
2018-06-12T14:37:03.782Z,4.67
2018-06-12T14:41:08.559Z,5.67
2018-06-12T14:45:23.766Z,4.60
2018-06-12T14:49:27.410Z,4.70
2018-06-12T14:53:30.997Z,4.90
2018-06-12T14:57:34.899Z,6.70
2018-06-12T15:01:39.565Z,5.97
2018-06-12T15:05:43.097Z,5.10
2018-06-12T15:09:46.659Z,4.93
2018-06-12T15:13:51.366Z,4.57
2018-06-12T15:17:54.915Z,9.00
2018-06-12T15:21:58.803Z,7.97
2018-06-12T15:26:02.436Z,5.43
2018-06-12T15:30:06.363Z,4.80
2018-06-12T15:34:09.892Z,4.90
2018-06-12T15:38:23.338Z,5.40
2018-06-12T15:42:26.958Z,6.43
2018-06-12T15:46:34.896Z,5.63
2018-06-12T15:50:40.483Z,6.20
2018-06-12T15:54:44.085Z,7.07
2018-06-12T15:58:47.558Z,6.20
2018-06-12T16:02:51.253Z,9.63
2018-06-12T16:06:54.788Z,5.83
2018-06-12T16:10:58.314Z,8.20
2018-06-12T16:15:02.286Z,9.13
2018-06-12T16:19:07.110Z,8.27
2018-06-12T16:23:11.314Z,7.93
2018-06-12T16:27:14.946Z,9.80
2018-06-12T16:31:18.431Z,10.40
2018-06-12T16:35:26.194Z,6.03
2018-06-12T16:39:29.804Z,7.03
2018-06-12T16:43:36.926Z,7.43
2018-06-12T16:47:42.859Z,7.30
2018-06-12T16:51:46.487Z,71.70
2018-06-12T16:55:50.008Z,23.23
2018-06-12T16:59:59.389Z,22.77
2018-06-12T17:04:05.034Z,9.23
2018-06-12T17:08:10.594Z,9.63
2018-06-12T17:12:15.162Z,7.50
2018-06-12T17:16:22.464Z,5.50
2018-06-12T17:20:25.985Z,8.33
2018-06-12T17:24:34.752Z,5.83
2018-06-12T17:28:38.365Z,7.67
2018-06-12T17:32:42.514Z,9.53
2018-06-12T17:36:47.066Z,9.37
2018-06-12T17:40:50.608Z,7.53
2018-06-12T17:44:55.294Z,10.37
2018-06-12T17:48:59.360Z,8.40
2018-06-12T17:53:04.719Z,12.10
2018-06-12T17:57:09.576Z,7.77
2018-06-12T18:01:13.206Z,11.33
2018-06-12T18:05:18.025Z,10.40
2018-06-12T18:09:22.580Z,8.90
2018-06-12T18:13:26.387Z,10.60
2018-06-12T18:17:30.027Z,14.53
2018-06-12T18:21:34.305Z,15.67
2018-06-12T18:25:38.477Z,13.40
2018-06-12T18:29:43.366Z,16.30
2018-06-12T18:33:52.419Z,18.10
2018-06-12T18:37:59.579Z,15.53
2018-06-12T18:42:03.502Z,15.40
2018-06-12T18:46:07.869Z,14.97
2018-06-12T18:50:12.250Z,13.70
2018-06-12T18:54:17.616Z,14.70
2018-06-12T18:58:24.703Z,12.63
2018-06-12T19:02:28.574Z,15.03
2018-06-12T19:06:32.277Z,11.00
2018-06-12T19:10:40.293Z,8.57
2018-06-12T19:14:43.981Z,13.23
2018-06-12T19:18:48.233Z,9.63
2018-06-12T19:22:57.727Z,7.93
2018-06-12T19:27:01.664Z,7.50
2018-06-12T19:31:07.381Z,9.00
2018-06-12T19:35:13.101Z,12.13
2018-06-12T19:39:16.756Z,9.17
2018-06-12T19:43:20.791Z,8.83
2018-06-12T19:47:28.591Z,11.13
2018-06-12T19:51:32.240Z,12.20
2018-06-12T19:55:36.013Z,9.23
2018-06-12T19:59:41.733Z,8.10
2018-06-12T20:03:45.751Z,9.70
2018-06-12T20:07:59.944Z,9.93
2018-06-12T20:12:13.577Z,14.47
2018-06-12T20:16:18.060Z,12.23
2018-06-12T20:20:22.712Z,10.40
2018-06-12T20:24:30.673Z,10.00
2018-06-12T20:28:49.528Z,10.60
2018-06-12T20:32:54.638Z,10.80
2018-06-12T20:36:58.434Z,9.20
2018-06-12T20:41:14.135Z,9.93
2018-06-12T20:45:17.820Z,9.73
2018-06-12T20:49:21.211Z,12.13
2018-06-12T20:53:24.719Z,14.97
2018-06-12T20:57:28.470Z,11.67
2018-06-12T21:01:32.859Z,13.77
2018-06-12T21:05:36.191Z,11.60
2018-06-12T21:09:41.890Z,14.57
2018-06-12T21:13:45.891Z,13.40
2018-06-12T21:18:07.538Z,12.43
2018-06-12T21:22:11.373Z,13.87
2018-06-12T21:26:15.128Z,11.47
2018-06-12T21:30:18.831Z,11.60
2018-06-12T21:34:23.470Z,11.23
2018-06-12T21:38:27.721Z,11.20
2018-06-12T21:42:31.199Z,10.10
2018-06-12T21:46:35.871Z,10.37
2018-06-12T21:50:39.753Z,10.60
2018-06-12T21:54:43.558Z,9.83
2018-06-12T21:58:47.285Z,11.73
2018-06-12T22:02:51.048Z,11.23
2018-06-12T22:06:54.571Z,12.43
2018-06-12T22:10:58.323Z,12.77
2018-06-12T22:15:01.971Z,13.17
2018-06-12T22:19:06.838Z,13.27
2018-06-12T22:23:10.993Z,15.27
2018-06-12T22:27:35.282Z,9.83
2018-06-12T22:31:39.067Z,13.20
2018-06-12T22:35:43.167Z,12.40
2018-06-12T22:39:46.922Z,10.93
2018-06-12T22:43:50.634Z,10.57
2018-06-12T22:47:53.812Z,11.43
2018-06-12T22:51:57.807Z,14.10
2018-06-12T22:56:01.414Z,10.67
2018-06-12T23:00:05.455Z,11.63
2018-06-12T23:04:09.167Z,12.07
2018-06-12T23:08:13.163Z,12.20
2018-06-12T23:12:16.711Z,12.53
2018-06-12T23:16:20.270Z,9.67
2018-06-12T23:21:39.477Z,10.50
2018-06-12T23:25:43.210Z,13.93
2018-06-12T23:29:46.947Z,11.67
2018-06-12T23:33:50.442Z,13.20
2018-06-12T23:37:54.227Z,13.50
2018-06-12T23:41:57.773Z,17.27
2018-06-12T23:46:01.530Z,15.30
2018-06-12T23:50:05.092Z,15.87
2018-06-12T23:54:09.446Z,15.13
2018-06-12T23:58:13.146Z,17.40
